sensor_id;sensor_type;location;lat;lon;timestamp;noise_LAeq;noise_LA_min;noise_LA_max;noise_LA01;noise_LA95
51665;Laerm;37751;52.408;12.536;2023-08-21T00:02:11;6.00;6.00;6.00;;
51665;Laerm;37751;52.408;12.536;2023-08-21T00:04:38;6.00;6.00;6.00;;
51665;Laerm;37751;52.408;12.536;2023-08-21T00:07:06;6.00;6.00;6.00;;
51665;Laerm;37751;52.408;12.536;2023-08-21T00:09:37;6.00;6.00;6.00;;
51665;Laerm;37751;52.408;12.536;2023-08-21T00:12:06;6.00;6.00;6.00;;
51665;Laerm;37751;52.408;12.536;2023-08-21T00:14:34;6.00;6.00;6.00;;
51665;Laerm;37751;52.408;12.536;2023-08-21T00:17:02;6.00;6.00;6.00;;
51665;Laerm;37751;52.408;12.536;2023-08-21T00:19:31;6.00;6.00;6.00;;
51665;Laerm;37751;52.408;12.536;2023-08-21T00:21:59;6.00;6.00;6.00;;
51665;Laerm;37751;52.408;12.536;2023-08-21T00:24:27;6.00;6.00;6.00;;
51665;Laerm;37751;52.408;12.536;2023-08-21T00:26:55;6.00;6.00;6.00;;
51665;Laerm;37751;52.408;12.536;2023-08-21T00:29:23;6.00;6.00;6.00;;
51665;Laerm;37751;52.408;12.536;2023-08-21T00:31:51;6.00;6.00;6.00;;
51665;Laerm;37751;52.408;12.536;2023-08-21T00:34:22;6.00;6.00;6.00;;
51665;Laerm;37751;52.408;12.536;2023-08-21T00:37:40;24.96;6.00;61.00;;
51665;Laerm;37751;52.408;12.536;2023-08-21T00:40:20;15.69;6.00;51.78;;
51665;Laerm;37751;52.408;12.536;2023-08-21T00:42:50;6.00;6.00;6.00;;
51665;Laerm;37751;52.408;12.536;2023-08-21T00:45:17;41.11;6.00;76.19;;
51665;Laerm;37751;52.408;12.536;2023-08-21T00:47:46;6.00;6.00;6.00;;
51665;Laerm;37751;52.408;12.536;2023-08-21T00:50:14;6.00;6.00;6.00;;
51665;Laerm;37751;52.408;12.536;2023-08-21T00:52:45;6.00;6.00;6.00;;
51665;Laerm;37751;52.408;12.536;2023-08-21T00:55:13;6.00;6.00;6.00;;
51665;Laerm;37751;52.408;12.536;2023-08-21T00:57:42;6.00;6.00;6.00;;
51665;Laerm;37751;52.408;12.536;2023-08-21T01:00:11;6.00;6.00;6.00;;
51665;Laerm;37751;52.408;12.536;2023-08-21T01:02:40;6.00;6.00;6.00;;
51665;Laerm;37751;52.408;12.536;2023-08-21T01:05:12;6.00;6.00;6.00;;
51665;Laerm;37751;52.408;12.536;2023-08-21T01:13:31;6.00;6.00;6.00;;
51665;Laerm;37751;52.408;12.536;2023-08-21T01:16:03;6.00;6.00;6.00;;
51665;Laerm;37751;52.408;12.536;2023-08-21T01:18:33;6.00;6.00;6.00;;
51665;Laerm;37751;52.408;12.536;2023-08-21T01:21:03;6.00;6.00;6.00;;
51665;Laerm;37751;52.408;12.536;2023-08-21T01:23:37;6.00;6.00;6.00;;
51665;Laerm;37751;52.408;12.536;2023-08-21T01:26:05;6.00;6.00;6.00;;
51665;Laerm;37751;52.408;12.536;2023-08-21T01:28:33;6.00;6.00;6.00;;
51665;Laerm;37751;52.408;12.536;2023-08-21T01:33:37;6.00;6.00;6.00;;
51665;Laerm;37751;52.408;12.536;2023-08-21T01:36:07;21.04;6.00;53.08;;
51665;Laerm;37751;52.408;12.536;2023-08-21T01:38:35;6.00;6.00;6.00;;
51665;Laerm;37751;52.408;12.536;2023-08-21T01:41:03;6.00;6.00;6.00;;
51665;Laerm;37751;52.408;12.536;2023-08-21T01:43:30;6.00;6.00;6.00;;
51665;Laerm;37751;52.408;12.536;2023-08-21T01:46:01;6.00;6.00;6.00;;
51665;Laerm;37751;52.408;12.536;2023-08-21T01:48:29;6.00;6.00;6.00;;
51665;Laerm;37751;52.408;12.536;2023-08-21T01:51:01;6.00;6.00;6.00;;
51665;Laerm;37751;52.408;12.536;2023-08-21T01:53:30;6.00;6.00;6.00;;
51665;Laerm;37751;52.408;12.536;2023-08-21T01:55:58;6.00;6.00;6.00;;
51665;Laerm;37751;52.408;12.536;2023-08-21T01:58:25;6.00;6.00;6.00;;
51665;Laerm;37751;52.408;12.536;2023-08-21T02:00:53;6.00;6.00;6.00;;
51665;Laerm;37751;52.408;12.536;2023-08-21T02:03:21;6.00;6.00;6.00;;
51665;Laerm;37751;52.408;12.536;2023-08-21T02:05:49;6.00;6.00;6.00;;
51665;Laerm;37751;52.408;12.536;2023-08-21T02:08:17;6.00;6.00;6.00;;
51665;Laerm;37751;52.408;12.536;2023-08-21T02:10:51;6.00;6.00;6.00;;
51665;Laerm;37751;52.408;12.536;2023-08-21T02:13:19;6.00;6.00;6.00;;
51665;Laerm;37751;52.408;12.536;2023-08-21T02:15:47;6.00;6.00;6.00;;
51665;Laerm;37751;52.408;12.536;2023-08-21T02:18:15;6.00;6.00;6.00;;
51665;Laerm;37751;52.408;12.536;2023-08-21T02:20:44;6.00;6.00;6.00;;
51665;Laerm;37751;52.408;12.536;2023-08-21T02:23:11;6.00;6.00;6.00;;
51665;Laerm;37751;52.408;12.536;2023-08-21T02:25:40;6.00;6.00;6.00;;
51665;Laerm;37751;52.408;12.536;2023-08-21T02:28:08;6.00;6.00;6.00;;
51665;Laerm;37751;52.408;12.536;2023-08-21T02:30:39;6.00;6.00;6.00;;
51665;Laerm;37751;52.408;12.536;2023-08-21T02:33:07;6.00;6.00;6.00;;
51665;Laerm;37751;52.408;12.536;2023-08-21T02:35:34;6.00;6.00;6.00;;
51665;Laerm;37751;52.408;12.536;2023-08-21T02:38:03;6.45;6.00;31.89;;
51665;Laerm;37751;52.408;12.536;2023-08-21T02:40:35;6.37;6.00;29.67;;
51665;Laerm;37751;52.408;12.536;2023-08-21T02:43:04;6.00;6.00;6.00;;
51665;Laerm;37751;52.408;12.536;2023-08-21T02:45:32;6.00;6.00;6.00;;
51665;Laerm;37751;52.408;12.536;2023-08-21T02:48:00;6.00;6.00;6.00;;
51665;Laerm;37751;52.408;12.536;2023-08-21T02:50:27;6.00;6.00;6.00;;
51665;Laerm;37751;52.408;12.536;2023-08-21T02:52:55;6.00;6.00;6.00;;
51665;Laerm;37751;52.408;12.536;2023-08-21T02:55:23;6.00;6.00;6.00;;
51665;Laerm;37751;52.408;12.536;2023-08-21T02:57:51;62.40;6.00;90.55;;
51665;Laerm;37751;52.408;12.536;2023-08-21T03:00:19;62.59;48.48;73.58;;
51665;Laerm;37751;52.408;12.536;2023-08-21T03:02:47;57.11;44.94;70.43;;
51665;Laerm;37751;52.408;12.536;2023-08-21T03:05:15;61.94;46.94;73.25;;
51665;Laerm;37751;52.408;12.536;2023-08-21T03:07:43;57.53;45.35;72.91;;
51665;Laerm;37751;52.408;12.536;2023-08-21T03:10:11;62.68;47.57;87.21;;
51665;Laerm;37751;52.408;12.536;2023-08-21T03:12:40;60.33;46.36;81.20;;
51665;Laerm;37751;52.408;12.536;2023-08-21T03:15:08;58.52;6.00;72.61;;
51665;Laerm;37751;52.408;12.536;2023-08-21T03:17:36;60.11;48.24;70.41;;
51665;Laerm;37751;52.408;12.536;2023-08-21T03:20:04;59.67;44.77;81.20;;
51665;Laerm;37751;52.408;12.536;2023-08-21T03:22:32;60.51;47.50;73.12;;
51665;Laerm;37751;52.408;12.536;2023-08-21T03:25:00;61.56;49.18;73.03;;
51665;Laerm;37751;52.408;12.536;2023-08-21T03:27:29;62.25;46.36;77.36;;
51665;Laerm;37751;52.408;12.536;2023-08-21T03:29:58;60.44;46.14;70.95;;
51665;Laerm;37751;52.408;12.536;2023-08-21T03:32:30;62.76;47.27;87.21;;
51665;Laerm;37751;52.408;12.536;2023-08-21T03:34:57;60.07;46.11;73.11;;
51665;Laerm;37751;52.408;12.536;2023-08-21T03:37:25;64.85;50.18;77.71;;
51665;Laerm;37751;52.408;12.536;2023-08-21T03:39:53;62.83;48.06;74.23;;
51665;Laerm;37751;52.408;12.536;2023-08-21T03:42:21;63.95;48.22;77.97;;
51665;Laerm;37751;52.408;12.536;2023-08-21T03:44:49;62.38;48.72;72.53;;
51665;Laerm;37751;52.408;12.536;2023-08-21T03:47:17;62.44;48.77;73.22;;
51665;Laerm;37751;52.408;12.536;2023-08-21T03:49:55;61.17;47.89;72.01;;
51665;Laerm;37751;52.408;12.536;2023-08-21T03:52:24;61.21;46.20;71.96;;
51665;Laerm;37751;52.408;12.536;2023-08-21T03:54:52;41.28;6.00;58.35;;
51665;Laerm;37751;52.408;12.536;2023-08-21T03:57:20;6.00;6.00;6.00;;
51665;Laerm;37751;52.408;12.536;2023-08-21T03:59:48;28.94;6.00;65.17;;
51665;Laerm;37751;52.408;12.536;2023-08-21T04:02:15;6.00;6.00;6.00;;
51665;Laerm;37751;52.408;12.536;2023-08-21T04:04:43;6.00;6.00;6.00;;
51665;Laerm;37751;52.408;12.536;2023-08-21T04:07:12;6.00;6.00;6.00;;
51665;Laerm;37751;52.408;12.536;2023-08-21T04:09:40;6.00;6.00;6.00;;
51665;Laerm;37751;52.408;12.536;2023-08-21T04:12:07;6.00;6.00;6.00;;
51665;Laerm;37751;52.408;12.536;2023-08-21T04:14:35;58.19;6.00;73.57;;
51665;Laerm;37751;52.408;12.536;2023-08-21T04:17:03;63.30;46.77;79.19;;
51665;Laerm;37751;52.408;12.536;2023-08-21T04:19:31;63.99;50.41;79.76;;
51665;Laerm;37751;52.408;12.536;2023-08-21T04:22:02;62.90;48.61;75.05;;
51665;Laerm;37751;52.408;12.536;2023-08-21T04:24:30;64.68;48.61;78.44;;
51665;Laerm;37751;52.408;12.536;2023-08-21T04:26:58;62.55;51.24;71.98;;
51665;Laerm;37751;52.408;12.536;2023-08-21T04:29:26;63.76;48.90;72.30;;
51665;Laerm;37751;52.408;12.536;2023-08-21T04:31:54;62.00;6.00;87.20;;
51665;Laerm;37751;52.408;12.536;2023-08-21T04:34:25;65.28;48.20;80.38;;
51665;Laerm;37751;52.408;12.536;2023-08-21T04:37:03;65.16;49.16;78.92;;
51665;Laerm;37751;52.408;12.536;2023-08-21T04:39:32;64.85;49.00;78.62;;
51665;Laerm;37751;52.408;12.536;2023-08-21T04:42:00;64.42;6.00;74.84;;
51665;Laerm;37751;52.408;12.536;2023-08-21T04:44:27;63.98;51.92;73.20;;
51665;Laerm;37751;52.408;12.536;2023-08-21T04:46:57;64.17;53.12;74.30;;
51665;Laerm;37751;52.408;12.536;2023-08-21T04:49:45;61.19;6.00;71.50;;
51665;Laerm;37751;52.408;12.536;2023-08-21T04:52:13;6.00;6.00;6.00;;
51665;Laerm;37751;52.408;12.536;2023-08-21T04:54:41;6.00;6.00;6.00;;
51665;Laerm;37751;52.408;12.536;2023-08-21T04:57:10;6.00;6.00;6.00;;
51665;Laerm;37751;52.408;12.536;2023-08-21T04:59:38;6.00;6.00;6.00;;
51665;Laerm;37751;52.408;12.536;2023-08-21T05:02:07;6.00;6.00;6.00;;
51665;Laerm;37751;52.408;12.536;2023-08-21T05:04:36;6.00;6.00;6.00;;
51665;Laerm;37751;52.408;12.536;2023-08-21T05:07:05;6.00;6.00;6.00;;
51665;Laerm;37751;52.408;12.536;2023-08-21T05:09:33;6.00;6.00;6.00;;
51665;Laerm;37751;52.408;12.536;2023-08-21T05:12:01;6.00;6.00;6.00;;
51665;Laerm;37751;52.408;12.536;2023-08-21T05:14:29;6.00;6.00;6.00;;
51665;Laerm;37751;52.408;12.536;2023-08-21T05:16:57;6.00;6.00;6.00;;
51665;Laerm;37751;52.408;12.536;2023-08-21T05:19:25;6.00;6.00;6.00;;
51665;Laerm;37751;52.408;12.536;2023-08-21T05:21:55;6.00;6.00;6.00;;
51665;Laerm;37751;52.408;12.536;2023-08-21T05:24:24;6.00;6.00;6.00;;
51665;Laerm;37751;52.408;12.536;2023-08-21T05:27:00;6.00;6.00;6.00;;
51665;Laerm;37751;52.408;12.536;2023-08-21T05:29:28;6.00;6.00;6.00;;
51665;Laerm;37751;52.408;12.536;2023-08-21T05:31:56;6.00;6.00;6.00;;
51665;Laerm;37751;52.408;12.536;2023-08-21T05:34:24;6.00;6.00;6.00;;
51665;Laerm;37751;52.408;12.536;2023-08-21T05:36:53;6.00;6.00;6.00;;
51665;Laerm;37751;52.408;12.536;2023-08-21T05:39:22;6.00;6.00;6.00;;
51665;Laerm;37751;52.408;12.536;2023-08-21T05:41:50;6.00;6.00;6.00;;
51665;Laerm;37751;52.408;12.536;2023-08-21T05:44:19;6.00;6.00;6.00;;
51665;Laerm;37751;52.408;12.536;2023-08-21T05:46:47;6.00;6.00;6.00;;
51665;Laerm;37751;52.408;12.536;2023-08-21T05:49:15;6.00;6.00;6.00;;
51665;Laerm;37751;52.408;12.536;2023-08-21T05:51:43;6.00;6.00;6.00;;
51665;Laerm;37751;52.408;12.536;2023-08-21T05:54:11;6.00;6.00;6.00;;
51665;Laerm;37751;52.408;12.536;2023-08-21T05:56:40;6.00;6.00;6.00;;
51665;Laerm;37751;52.408;12.536;2023-08-21T05:59:10;6.00;6.00;6.00;;
51665;Laerm;37751;52.408;12.536;2023-08-21T06:01:39;6.00;6.00;6.00;;
51665;Laerm;37751;52.408;12.536;2023-08-21T06:04:07;6.00;6.00;6.00;;
51665;Laerm;37751;52.408;12.536;2023-08-21T06:06:43;6.00;6.00;6.00;;
51665;Laerm;37751;52.408;12.536;2023-08-21T06:09:11;6.00;6.00;6.00;;
51665;Laerm;37751;52.408;12.536;2023-08-21T06:11:39;6.00;6.00;6.00;;
51665;Laerm;37751;52.408;12.536;2023-08-21T06:14:07;6.00;6.00;6.00;;
51665;Laerm;37751;52.408;12.536;2023-08-21T06:16:35;6.00;6.00;6.00;;
51665;Laerm;37751;52.408;12.536;2023-08-21T06:19:03;6.00;6.00;6.00;;
51665;Laerm;37751;52.408;12.536;2023-08-21T06:21:30;6.00;6.00;6.00;;
51665;Laerm;37751;52.408;12.536;2023-08-21T06:23:58;6.00;6.00;6.00;;
51665;Laerm;37751;52.408;12.536;2023-08-21T06:26:26;6.00;6.00;6.00;;
51665;Laerm;37751;52.408;12.536;2023-08-21T06:28:54;6.00;6.00;6.00;;
51665;Laerm;37751;52.408;12.536;2023-08-21T06:31:22;6.00;6.00;6.00;;
51665;Laerm;37751;52.408;12.536;2023-08-21T06:33:50;6.00;6.00;6.00;;
51665;Laerm;37751;52.408;12.536;2023-08-21T06:36:18;6.00;6.00;6.00;;
51665;Laerm;37751;52.408;12.536;2023-08-21T06:38:46;6.00;6.00;6.00;;
51665;Laerm;37751;52.408;12.536;2023-08-21T06:41:14;6.00;6.00;6.00;;
51665;Laerm;37751;52.408;12.536;2023-08-21T06:43:42;6.00;6.00;6.00;;
51665;Laerm;37751;52.408;12.536;2023-08-21T06:46:15;6.00;6.00;6.00;;
51665;Laerm;37751;52.408;12.536;2023-08-21T06:48:43;6.00;6.00;6.00;;
51665;Laerm;37751;52.408;12.536;2023-08-21T06:51:11;6.00;6.00;6.00;;
51665;Laerm;37751;52.408;12.536;2023-08-21T06:53:42;6.00;6.00;6.00;;
51665;Laerm;37751;52.408;12.536;2023-08-21T06:56:10;6.00;6.00;6.00;;
51665;Laerm;37751;52.408;12.536;2023-08-21T06:58:38;6.00;6.00;6.00;;
51665;Laerm;37751;52.408;12.536;2023-08-21T07:01:05;6.00;6.00;6.00;;
51665;Laerm;37751;52.408;12.536;2023-08-21T07:03:33;6.00;6.00;6.00;;
51665;Laerm;37751;52.408;12.536;2023-08-21T07:06:01;6.00;6.00;6.00;;
51665;Laerm;37751;52.408;12.536;2023-08-21T07:08:30;6.00;6.00;6.00;;
51665;Laerm;37751;52.408;12.536;2023-08-21T07:10:58;6.00;6.00;6.00;;
51665;Laerm;37751;52.408;12.536;2023-08-21T07:13:29;6.00;6.00;6.00;;
51665;Laerm;37751;52.408;12.536;2023-08-21T07:15:56;6.00;6.00;6.00;;
51665;Laerm;37751;52.408;12.536;2023-08-21T07:18:24;6.00;6.00;6.00;;
51665;Laerm;37751;52.408;12.536;2023-08-21T07:20:52;6.00;6.00;6.00;;
51665;Laerm;37751;52.408;12.536;2023-08-21T07:23:21;6.00;6.00;6.00;;
51665;Laerm;37751;52.408;12.536;2023-08-21T07:25:49;6.00;6.00;6.00;;
51665;Laerm;37751;52.408;12.536;2023-08-21T07:28:17;6.00;6.00;6.00;;
51665;Laerm;37751;52.408;12.536;2023-08-21T07:30:44;6.00;6.00;6.00;;
51665;Laerm;37751;52.408;12.536;2023-08-21T07:33:12;6.00;6.00;6.00;;
51665;Laerm;37751;52.408;12.536;2023-08-21T07:35:40;6.00;6.00;6.00;;
51665;Laerm;37751;52.408;12.536;2023-08-21T07:38:09;6.00;6.00;6.00;;
51665;Laerm;37751;52.408;12.536;2023-08-21T07:40:36;6.00;6.00;6.00;;
51665;Laerm;37751;52.408;12.536;2023-08-21T07:43:04;6.00;6.00;6.00;;
51665;Laerm;37751;52.408;12.536;2023-08-21T07:45:32;6.00;6.00;6.00;;
51665;Laerm;37751;52.408;12.536;2023-08-21T07:48:00;6.00;6.00;6.00;;
51665;Laerm;37751;52.408;12.536;2023-08-21T07:50:41;6.00;6.00;6.00;;
51665;Laerm;37751;52.408;12.536;2023-08-21T07:53:08;6.00;6.00;6.00;;
51665;Laerm;37751;52.408;12.536;2023-08-21T07:55:36;6.00;6.00;6.00;;
51665;Laerm;37751;52.408;12.536;2023-08-21T07:58:04;6.00;6.00;6.00;;
51665;Laerm;37751;52.408;12.536;2023-08-21T08:00:32;6.00;6.00;6.00;;
51665;Laerm;37751;52.408;12.536;2023-08-21T08:03:00;6.00;6.00;6.00;;
51665;Laerm;37751;52.408;12.536;2023-08-21T08:05:28;6.00;6.00;6.00;;
51665;Laerm;37751;52.408;12.536;2023-08-21T08:07:55;6.00;6.00;6.00;;
51665;Laerm;37751;52.408;12.536;2023-08-21T08:10:24;6.00;6.00;6.00;;
51665;Laerm;37751;52.408;12.536;2023-08-21T08:12:52;6.00;6.00;6.00;;
51665;Laerm;37751;52.408;12.536;2023-08-21T08:15:22;6.00;6.00;6.00;;
51665;Laerm;37751;52.408;12.536;2023-08-21T08:17:50;6.00;6.00;6.00;;
51665;Laerm;37751;52.408;12.536;2023-08-21T08:20:21;6.00;6.00;6.00;;
51665;Laerm;37751;52.408;12.536;2023-08-21T08:22:49;6.00;6.00;6.00;;
51665;Laerm;37751;52.408;12.536;2023-08-21T08:25:16;6.00;6.00;6.00;;
51665;Laerm;37751;52.408;12.536;2023-08-21T08:27:44;6.00;6.00;6.00;;
51665;Laerm;37751;52.408;12.536;2023-08-21T08:30:13;6.00;6.00;6.00;;
51665;Laerm;37751;52.408;12.536;2023-08-21T08:32:42;6.00;6.00;6.00;;
51665;Laerm;37751;52.408;12.536;2023-08-21T08:35:14;6.00;6.00;6.00;;
51665;Laerm;37751;52.408;12.536;2023-08-21T08:37:42;6.00;6.00;6.00;;
51665;Laerm;37751;52.408;12.536;2023-08-21T08:40:11;6.00;6.00;6.00;;
51665;Laerm;37751;52.408;12.536;2023-08-21T08:42:39;6.00;6.00;6.00;;
51665;Laerm;37751;52.408;12.536;2023-08-21T08:45:07;6.00;6.00;6.00;;
51665;Laerm;37751;52.408;12.536;2023-08-21T08:47:35;6.00;6.00;6.00;;
51665;Laerm;37751;52.408;12.536;2023-08-21T08:50:08;6.00;6.00;6.00;;
51665;Laerm;37751;52.408;12.536;2023-08-21T08:52:39;6.00;6.00;6.00;;
51665;Laerm;37751;52.408;12.536;2023-08-21T08:55:08;6.00;6.00;6.00;;
51665;Laerm;37751;52.408;12.536;2023-08-21T08:57:36;6.00;6.00;6.00;;
51665;Laerm;37751;52.408;12.536;2023-08-21T09:00:05;6.00;6.00;6.00;;
51665;Laerm;37751;52.408;12.536;2023-08-21T09:02:35;6.00;6.00;6.00;;
51665;Laerm;37751;52.408;12.536;2023-08-21T09:05:04;6.00;6.00;6.00;;
51665;Laerm;37751;52.408;12.536;2023-08-21T09:07:32;6.00;6.00;6.00;;
51665;Laerm;37751;52.408;12.536;2023-08-21T09:10:00;6.00;6.00;6.00;;
51665;Laerm;37751;52.408;12.536;2023-08-21T09:12:31;6.00;6.00;6.00;;
51665;Laerm;37751;52.408;12.536;2023-08-21T09:15:00;6.00;6.00;6.00;;
51665;Laerm;37751;52.408;12.536;2023-08-21T09:17:34;6.00;6.00;6.00;;
51665;Laerm;37751;52.408;12.536;2023-08-21T09:20:06;6.00;6.00;6.00;;
51665;Laerm;37751;52.408;12.536;2023-08-21T09:22:35;6.00;6.00;6.00;;
51665;Laerm;37751;52.408;12.536;2023-08-21T09:25:06;6.00;6.00;6.00;;
51665;Laerm;37751;52.408;12.536;2023-08-21T09:27:39;6.00;6.00;6.00;;
51665;Laerm;37751;52.408;12.536;2023-08-21T09:30:11;6.00;6.00;6.00;;
51665;Laerm;37751;52.408;12.536;2023-08-21T09:32:59;6.00;6.00;6.00;;
51665;Laerm;37751;52.408;12.536;2023-08-21T09:35:33;6.00;6.00;6.00;;
51665;Laerm;37751;52.408;12.536;2023-08-21T09:38:01;6.00;6.00;6.00;;
51665;Laerm;37751;52.408;12.536;2023-08-21T09:40:29;6.00;6.00;6.00;;
51665;Laerm;37751;52.408;12.536;2023-08-21T09:42:57;6.00;6.00;6.00;;
51665;Laerm;37751;52.408;12.536;2023-08-21T09:45:27;6.00;6.00;6.00;;
51665;Laerm;37751;52.408;12.536;2023-08-21T09:47:56;6.00;6.00;6.00;;
51665;Laerm;37751;52.408;12.536;2023-08-21T09:50:29;6.00;6.00;6.00;;
51665;Laerm;37751;52.408;12.536;2023-08-21T09:52:57;6.00;6.00;6.00;;
51665;Laerm;37751;52.408;12.536;2023-08-21T09:55:45;6.00;6.00;6.00;;
51665;Laerm;37751;52.408;12.536;2023-08-21T09:58:14;6.00;6.00;6.00;;
51665;Laerm;37751;52.408;12.536;2023-08-21T10:00:44;6.00;6.00;6.00;;
51665;Laerm;37751;52.408;12.536;2023-08-21T10:03:12;6.00;6.00;6.00;;
51665;Laerm;37751;52.408;12.536;2023-08-21T10:05:40;6.00;6.00;6.00;;
51665;Laerm;37751;52.408;12.536;2023-08-21T10:08:09;6.00;6.00;6.00;;
51665;Laerm;37751;52.408;12.536;2023-08-21T10:10:38;6.00;6.00;6.00;;
51665;Laerm;37751;52.408;12.536;2023-08-21T10:13:08;6.00;6.00;6.00;;
51665;Laerm;37751;52.408;12.536;2023-08-21T10:15:37;6.00;6.00;6.00;;
51665;Laerm;37751;52.408;12.536;2023-08-21T10:18:23;6.00;6.00;6.00;;
51665;Laerm;37751;52.408;12.536;2023-08-21T10:20:53;6.00;6.00;6.00;;
51665;Laerm;37751;52.408;12.536;2023-08-21T10:23:29;6.00;6.00;6.00;;
51665;Laerm;37751;52.408;12.536;2023-08-21T10:26:03;6.00;6.00;6.00;;
51665;Laerm;37751;52.408;12.536;2023-08-21T10:28:49;6.00;6.00;6.00;;
51665;Laerm;37751;52.408;12.536;2023-08-21T10:34:13;6.00;6.00;6.00;;
51665;Laerm;37751;52.408;12.536;2023-08-21T10:39:26;6.00;6.00;6.00;;
51665;Laerm;37751;52.408;12.536;2023-08-21T10:41:54;6.00;6.00;6.00;;
51665;Laerm;37751;52.408;12.536;2023-08-21T10:50:04;6.00;6.00;6.00;;
51665;Laerm;37751;52.408;12.536;2023-08-21T10:52:38;6.00;6.00;6.00;;
51665;Laerm;37751;52.408;12.536;2023-08-21T10:55:12;6.00;6.00;6.00;;
51665;Laerm;37751;52.408;12.536;2023-08-21T10:57:41;6.00;6.00;6.00;;
51665;Laerm;37751;52.408;12.536;2023-08-21T11:00:17;6.00;6.00;6.00;;
51665;Laerm;37751;52.408;12.536;2023-08-21T11:02:48;6.00;6.00;6.00;;
51665;Laerm;37751;52.408;12.536;2023-08-21T11:05:17;6.00;6.00;6.00;;
51665;Laerm;37751;52.408;12.536;2023-08-21T11:07:48;6.00;6.00;6.00;;
51665;Laerm;37751;52.408;12.536;2023-08-21T11:10:18;6.00;6.00;6.00;;
51665;Laerm;37751;52.408;12.536;2023-08-21T11:12:54;6.00;6.00;6.00;;
51665;Laerm;37751;52.408;12.536;2023-08-21T11:15:27;6.00;6.00;6.00;;
51665;Laerm;37751;52.408;12.536;2023-08-21T11:17:58;6.00;6.00;6.00;;
51665;Laerm;37751;52.408;12.536;2023-08-21T11:20:35;6.00;6.00;6.00;;
51665;Laerm;37751;52.408;12.536;2023-08-21T11:23:05;6.00;6.00;6.00;;
51665;Laerm;37751;52.408;12.536;2023-08-21T11:25:40;6.00;6.00;6.00;;
51665;Laerm;37751;52.408;12.536;2023-08-21T11:28:08;6.00;6.00;6.00;;
51665;Laerm;37751;52.408;12.536;2023-08-21T11:30:36;6.00;6.00;6.00;;
51665;Laerm;37751;52.408;12.536;2023-08-21T11:33:09;6.00;6.00;6.00;;
51665;Laerm;37751;52.408;12.536;2023-08-21T11:35:38;6.00;6.00;6.00;;
51665;Laerm;37751;52.408;12.536;2023-08-21T11:38:06;6.00;6.00;6.00;;
51665;Laerm;37751;52.408;12.536;2023-08-21T11:40:41;6.00;6.00;6.00;;
51665;Laerm;37751;52.408;12.536;2023-08-21T11:43:11;6.00;6.00;6.00;;
51665;Laerm;37751;52.408;12.536;2023-08-21T11:45:39;6.00;6.00;6.00;;
51665;Laerm;37751;52.408;12.536;2023-08-21T11:48:24;6.00;6.00;6.00;;
51665;Laerm;37751;52.408;12.536;2023-08-21T11:50:53;6.00;6.00;6.00;;
51665;Laerm;37751;52.408;12.536;2023-08-21T11:53:50;6.00;6.00;6.00;;
51665;Laerm;37751;52.408;12.536;2023-08-21T11:56:19;6.00;6.00;6.00;;
51665;Laerm;37751;52.408;12.536;2023-08-21T11:58:51;6.00;6.00;6.00;;
51665;Laerm;37751;52.408;12.536;2023-08-21T12:01:22;6.00;6.00;6.00;;
51665;Laerm;37751;52.408;12.536;2023-08-21T12:03:50;6.00;6.00;6.00;;
51665;Laerm;37751;52.408;12.536;2023-08-21T12:06:23;6.00;6.00;6.00;;
51665;Laerm;37751;52.408;12.536;2023-08-21T12:08:53;6.00;6.00;6.00;;
51665;Laerm;37751;52.408;12.536;2023-08-21T12:11:21;6.00;6.00;6.00;;
51665;Laerm;37751;52.408;12.536;2023-08-21T12:13:50;6.00;6.00;6.00;;
51665;Laerm;37751;52.408;12.536;2023-08-21T12:16:19;6.00;6.00;6.00;;
51665;Laerm;37751;52.408;12.536;2023-08-21T12:18:47;6.00;6.00;6.00;;
51665;Laerm;37751;52.408;12.536;2023-08-21T12:21:15;6.00;6.00;6.00;;
51665;Laerm;37751;52.408;12.536;2023-08-21T12:23:43;6.00;6.00;6.00;;
51665;Laerm;37751;52.408;12.536;2023-08-21T12:26:11;6.00;6.00;6.00;;
51665;Laerm;37751;52.408;12.536;2023-08-21T12:28:38;6.00;6.00;6.00;;
51665;Laerm;37751;52.408;12.536;2023-08-21T12:31:06;6.00;6.00;6.00;;
51665;Laerm;37751;52.408;12.536;2023-08-21T12:33:34;6.00;6.00;6.00;;
51665;Laerm;37751;52.408;12.536;2023-08-21T12:36:02;6.00;6.00;6.00;;
51665;Laerm;37751;52.408;12.536;2023-08-21T12:38:31;6.00;6.00;6.00;;
51665;Laerm;37751;52.408;12.536;2023-08-21T12:41:02;6.00;6.00;6.00;;
51665;Laerm;37751;52.408;12.536;2023-08-21T12:43:30;6.00;6.00;6.00;;
51665;Laerm;37751;52.408;12.536;2023-08-21T12:45:59;6.00;6.00;6.00;;
51665;Laerm;37751;52.408;12.536;2023-08-21T12:48:26;6.00;6.00;6.00;;
51665;Laerm;37751;52.408;12.536;2023-08-21T12:50:54;6.00;6.00;6.00;;
51665;Laerm;37751;52.408;12.536;2023-08-21T12:53:22;6.00;6.00;6.00;;
51665;Laerm;37751;52.408;12.536;2023-08-21T12:55:50;6.00;6.00;6.00;;
51665;Laerm;37751;52.408;12.536;2023-08-21T12:58:18;6.00;6.00;6.00;;
51665;Laerm;37751;52.408;12.536;2023-08-21T13:00:46;6.00;6.00;6.00;;
51665;Laerm;37751;52.408;12.536;2023-08-21T13:03:14;6.00;6.00;6.00;;
51665;Laerm;37751;52.408;12.536;2023-08-21T13:05:42;6.00;6.00;6.00;;
51665;Laerm;37751;52.408;12.536;2023-08-21T13:08:10;6.00;6.00;6.00;;
51665;Laerm;37751;52.408;12.536;2023-08-21T13:10:38;6.00;6.00;6.00;;
51665;Laerm;37751;52.408;12.536;2023-08-21T13:13:06;6.00;6.00;6.00;;
51665;Laerm;37751;52.408;12.536;2023-08-21T13:15:34;6.00;6.00;6.00;;
51665;Laerm;37751;52.408;12.536;2023-08-21T13:18:02;6.00;6.00;6.00;;
51665;Laerm;37751;52.408;12.536;2023-08-21T13:20:30;6.00;6.00;6.00;;
51665;Laerm;37751;52.408;12.536;2023-08-21T13:22:58;6.00;6.00;6.00;;
51665;Laerm;37751;52.408;12.536;2023-08-21T13:25:25;6.00;6.00;6.00;;
51665;Laerm;37751;52.408;12.536;2023-08-21T13:27:54;6.00;6.00;6.00;;
51665;Laerm;37751;52.408;12.536;2023-08-21T13:30:22;6.00;6.00;6.00;;
51665;Laerm;37751;52.408;12.536;2023-08-21T13:32:50;6.00;6.00;6.00;;
51665;Laerm;37751;52.408;12.536;2023-08-21T13:35:18;6.00;6.00;6.00;;
51665;Laerm;37751;52.408;12.536;2023-08-21T13:37:48;6.00;6.00;6.00;;
51665;Laerm;37751;52.408;12.536;2023-08-21T13:40:17;6.00;6.00;6.00;;
51665;Laerm;37751;52.408;12.536;2023-08-21T13:42:47;6.00;6.00;6.00;;
51665;Laerm;37751;52.408;12.536;2023-08-21T13:45:18;6.00;6.00;6.00;;
51665;Laerm;37751;52.408;12.536;2023-08-21T13:47:48;6.00;6.00;6.00;;
51665;Laerm;37751;52.408;12.536;2023-08-21T13:50:18;6.00;6.00;6.00;;
51665;Laerm;37751;52.408;12.536;2023-08-21T13:52:47;6.00;6.00;6.00;;
51665;Laerm;37751;52.408;12.536;2023-08-21T13:55:15;6.00;6.00;6.00;;
51665;Laerm;37751;52.408;12.536;2023-08-21T13:57:45;6.00;6.00;6.00;;
51665;Laerm;37751;52.408;12.536;2023-08-21T14:00:13;6.00;6.00;6.00;;
51665;Laerm;37751;52.408;12.536;2023-08-21T14:02:42;6.00;6.00;6.00;;
51665;Laerm;37751;52.408;12.536;2023-08-21T14:05:10;6.00;6.00;6.00;;
51665;Laerm;37751;52.408;12.536;2023-08-21T14:07:39;6.00;6.00;6.00;;
51665;Laerm;37751;52.408;12.536;2023-08-21T14:10:09;6.00;6.00;6.00;;
51665;Laerm;37751;52.408;12.536;2023-08-21T14:12:37;6.00;6.00;6.00;;
51665;Laerm;37751;52.408;12.536;2023-08-21T14:15:10;6.00;6.00;6.00;;
51665;Laerm;37751;52.408;12.536;2023-08-21T14:17:38;6.00;6.00;6.00;;
51665;Laerm;37751;52.408;12.536;2023-08-21T14:20:07;6.00;6.00;6.00;;
51665;Laerm;37751;52.408;12.536;2023-08-21T14:22:35;6.00;6.00;6.00;;
51665;Laerm;37751;52.408;12.536;2023-08-21T14:25:04;6.00;6.00;6.00;;
51665;Laerm;37751;52.408;12.536;2023-08-21T14:27:34;6.00;6.00;6.00;;
51665;Laerm;37751;52.408;12.536;2023-08-21T14:30:04;6.00;6.00;6.00;;
51665;Laerm;37751;52.408;12.536;2023-08-21T14:32:33;6.00;6.00;6.00;;
51665;Laerm;37751;52.408;12.536;2023-08-21T14:35:06;6.00;6.00;6.00;;
51665;Laerm;37751;52.408;12.536;2023-08-21T14:37:37;6.00;6.00;6.00;;